sensor_id;sensor_type;location;lat;lon;timestamp;temperature;humidity
12726;DHT22;6427;49.754;6.106;2022-10-24T00:02:25;15.20;99.90
12726;DHT22;6427;49.754;6.106;2022-10-24T00:04:54;15.20;99.90
12726;DHT22;6427;49.754;6.106;2022-10-24T00:07:22;15.20;99.90
12726;DHT22;6427;49.754;6.106;2022-10-24T00:09:49;15.20;99.90
12726;DHT22;6427;49.754;6.106;2022-10-24T00:12:17;15.10;99.90
12726;DHT22;6427;49.754;6.106;2022-10-24T00:14:45;15.40;99.90
12726;DHT22;6427;49.754;6.106;2022-10-24T00:17:13;15.40;99.90
12726;DHT22;6427;49.754;6.106;2022-10-24T00:19:40;15.40;99.90
12726;DHT22;6427;49.754;6.106;2022-10-24T00:22:08;15.30;99.90
12726;DHT22;6427;49.754;6.106;2022-10-24T00:24:36;15.30;99.90
12726;DHT22;6427;49.754;6.106;2022-10-24T00:27:04;15.30;99.90
12726;DHT22;6427;49.754;6.106;2022-10-24T00:29:31;15.30;99.90
12726;DHT22;6427;49.754;6.106;2022-10-24T00:31:59;15.30;99.90
12726;DHT22;6427;49.754;6.106;2022-10-24T00:34:26;15.20;99.90
12726;DHT22;6427;49.754;6.106;2022-10-24T00:36:54;15.30;99.90
12726;DHT22;6427;49.754;6.106;2022-10-24T00:39:22;15.40;99.90
12726;DHT22;6427;49.754;6.106;2022-10-24T00:41:50;15.40;99.90
12726;DHT22;6427;49.754;6.106;2022-10-24T00:44:22;15.60;99.90
12726;DHT22;6427;49.754;6.106;2022-10-24T00:47:05;15.60;99.90
12726;DHT22;6427;49.754;6.106;2022-10-24T00:49:36;15.60;99.90
12726;DHT22;6427;49.754;6.106;2022-10-24T00:52:02;15.50;99.90
12726;DHT22;6427;49.754;6.106;2022-10-24T00:54:29;15.50;99.90
12726;DHT22;6427;49.754;6.106;2022-10-24T00:57:19;15.40;99.90
12726;DHT22;6427;49.754;6.106;2022-10-24T00:59:24;15.40;99.90
12726;DHT22;6427;49.754;6.106;2022-10-24T01:01:52;15.40;99.90
12726;DHT22;6427;49.754;6.106;2022-10-24T01:04:20;15.40;99.90
12726;DHT22;6427;49.754;6.106;2022-10-24T01:09:56;15.30;99.90
12726;DHT22;6427;49.754;6.106;2022-10-24T01:17:56;15.20;99.90
12726;DHT22;6427;49.754;6.106;2022-10-24T01:20:25;15.20;99.90
12726;DHT22;6427;49.754;6.106;2022-10-24T01:25:46;15.20;99.90
12726;DHT22;6427;49.754;6.106;2022-10-24T01:28:12;15.10;99.90
12726;DHT22;6427;49.754;6.106;2022-10-24T01:30:48;15.20;99.90
12726;DHT22;6427;49.754;6.106;2022-10-24T01:33:29;15.40;99.90
12726;DHT22;6427;49.754;6.106;2022-10-24T01:35:59;15.40;99.90
12726;DHT22;6427;49.754;6.106;2022-10-24T01:40:51;15.40;99.90
12726;DHT22;6427;49.754;6.106;2022-10-24T01:43:40;15.30;99.90
12726;DHT22;6427;49.754;6.106;2022-10-24T01:46:07;15.30;99.90
12726;DHT22;6427;49.754;6.106;2022-10-24T01:48:36;15.20;99.90
12726;DHT22;6427;49.754;6.106;2022-10-24T01:51:02;15.20;99.90
12726;DHT22;6427;49.754;6.106;2022-10-24T01:53:30;15.20;99.90
12726;DHT22;6427;49.754;6.106;2022-10-24T01:55:58;15.20;99.90
12726;DHT22;6427;49.754;6.106;2022-10-24T01:58:26;15.20;99.90
12726;DHT22;6427;49.754;6.106;2022-10-24T02:00:56;15.20;99.90
12726;DHT22;6427;49.754;6.106;2022-10-24T02:03:33;15.20;99.90
12726;DHT22;6427;49.754;6.106;2022-10-24T02:06:00;15.10;99.90
12726;DHT22;6427;49.754;6.106;2022-10-24T02:08:29;15.40;99.90
12726;DHT22;6427;49.754;6.106;2022-10-24T02:10:57;15.40;99.90
12726;DHT22;6427;49.754;6.106;2022-10-24T02:13:32;15.20;99.90
12726;DHT22;6427;49.754;6.106;2022-10-24T02:15:55;15.20;99.90
12726;DHT22;6427;49.754;6.106;2022-10-24T02:18:22;15.20;99.90
12726;DHT22;6427;49.754;6.106;2022-10-24T02:23:33;15.10;99.90
12726;DHT22;6427;49.754;6.106;2022-10-24T02:25:55;15.10;99.90
12726;DHT22;6427;49.754;6.106;2022-10-24T02:28:22;15.30;99.90
12726;DHT22;6427;49.754;6.106;2022-10-24T02:30:56;15.30;99.90
12726;DHT22;6427;49.754;6.106;2022-10-24T02:33:20;15.30;99.90
12726;DHT22;6427;49.754;6.106;2022-10-24T02:35:47;15.20;99.90
12726;DHT22;6427;49.754;6.106;2022-10-24T02:40:48;15.20;99.90
12726;DHT22;6427;49.754;6.106;2022-10-24T02:43:16;15.20;99.90
12726;DHT22;6427;49.754;6.106;2022-10-24T02:45:44;15.20;99.90
12726;DHT22;6427;49.754;6.106;2022-10-24T02:48:11;15.20;99.90
12726;DHT22;6427;49.754;6.106;2022-10-24T02:50:39;15.20;99.90
12726;DHT22;6427;49.754;6.106;2022-10-24T02:53:14;15.20;99.90
12726;DHT22;6427;49.754;6.106;2022-10-24T02:55:42;15.10;99.90
12726;DHT22;6427;49.754;6.106;2022-10-24T02:58:09;15.10;99.90
12726;DHT22;6427;49.754;6.106;2022-10-24T03:00:37;15.20;99.90
12726;DHT22;6427;49.754;6.106;2022-10-24T03:03:05;15.10;99.90
12726;DHT22;6427;49.754;6.106;2022-10-24T03:05:33;15.10;99.90
12726;DHT22;6427;49.754;6.106;2022-10-24T03:08:01;15.10;99.90
12726;DHT22;6427;49.754;6.106;2022-10-24T03:10:28;15.10;99.90
12726;DHT22;6427;49.754;6.106;2022-10-24T03:12:57;15.10;99.90
12726;DHT22;6427;49.754;6.106;2022-10-24T03:15:24;15.10;99.90
12726;DHT22;6427;49.754;6.106;2022-10-24T03:17:52;15.10;99.90
12726;DHT22;6427;49.754;6.106;2022-10-24T03:20:20;15.10;99.90
12726;DHT22;6427;49.754;6.106;2022-10-24T03:22:48;15.10;99.90
12726;DHT22;6427;49.754;6.106;2022-10-24T03:25:15;15.20;99.90
12726;DHT22;6427;49.754;6.106;2022-10-24T03:27:43;15.10;99.90
12726;DHT22;6427;49.754;6.106;2022-10-24T03:30:11;15.10;99.90
12726;DHT22;6427;49.754;6.106;2022-10-24T03:32:39;15.10;99.90
12726;DHT22;6427;49.754;6.106;2022-10-24T03:35:06;15.20;99.90
12726;DHT22;6427;49.754;6.106;2022-10-24T03:37:34;15.20;99.90
12726;DHT22;6427;49.754;6.106;2022-10-24T03:40:01;15.20;99.90
12726;DHT22;6427;49.754;6.106;2022-10-24T03:42:29;15.40;99.90
12726;DHT22;6427;49.754;6.106;2022-10-24T03:44:56;15.40;99.90
12726;DHT22;6427;49.754;6.106;2022-10-24T03:47:24;15.40;99.90
12726;DHT22;6427;49.754;6.106;2022-10-24T03:49:52;15.40;99.90
12726;DHT22;6427;49.754;6.106;2022-10-24T03:52:20;15.40;99.90
12726;DHT22;6427;49.754;6.106;2022-10-24T03:54:48;15.40;99.90
12726;DHT22;6427;49.754;6.106;2022-10-24T03:57:16;15.60;99.90
12726;DHT22;6427;49.754;6.106;2022-10-24T03:59:44;15.60;99.90
12726;DHT22;6427;49.754;6.106;2022-10-24T04:02:13;15.60;99.90
12726;DHT22;6427;49.754;6.106;2022-10-24T04:04:40;15.60;99.90
12726;DHT22;6427;49.754;6.106;2022-10-24T04:07:08;15.50;99.90
12726;DHT22;6427;49.754;6.106;2022-10-24T04:09:35;15.50;99.90
12726;DHT22;6427;49.754;6.106;2022-10-24T04:12:03;15.70;99.90
12726;DHT22;6427;49.754;6.106;2022-10-24T04:14:31;15.70;99.90
12726;DHT22;6427;49.754;6.106;2022-10-24T04:16:58;15.60;99.90
12726;DHT22;6427;49.754;6.106;2022-10-24T04:19:26;15.50;99.90
12726;DHT22;6427;49.754;6.106;2022-10-24T04:21:53;15.50;99.90
12726;DHT22;6427;49.754;6.106;2022-10-24T04:24:21;15.60;99.90
12726;DHT22;6427;49.754;6.106;2022-10-24T04:39:09;16.20;99.90
12726;DHT22;6427;49.754;6.106;2022-10-24T04:41:37;16.30;99.90
12726;DHT22;6427;49.754;6.106;2022-10-24T04:44:05;16.20;99.90
12726;DHT22;6427;49.754;6.106;2022-10-24T04:46:33;16.10;99.90
12726;DHT22;6427;49.754;6.106;2022-10-24T04:49:01;16.00;99.90
12726;DHT22;6427;49.754;6.106;2022-10-24T04:51:29;16.00;99.90
12726;DHT22;6427;49.754;6.106;2022-10-24T04:53:56;15.90;99.90
12726;DHT22;6427;49.754;6.106;2022-10-24T04:56:24;15.80;99.90
12726;DHT22;6427;49.754;6.106;2022-10-24T04:58:51;15.70;99.90
12726;DHT22;6427;49.754;6.106;2022-10-24T05:01:20;15.60;99.90
12726;DHT22;6427;49.754;6.106;2022-10-24T05:03:47;15.60;99.90
12726;DHT22;6427;49.754;6.106;2022-10-24T05:06:15;15.60;99.90
12726;DHT22;6427;49.754;6.106;2022-10-24T05:08:43;15.60;99.90
12726;DHT22;6427;49.754;6.106;2022-10-24T05:11:11;15.50;99.90
12726;DHT22;6427;49.754;6.106;2022-10-24T05:13:40;15.50;99.90
12726;DHT22;6427;49.754;6.106;2022-10-24T05:16:07;15.50;99.90
12726;DHT22;6427;49.754;6.106;2022-10-24T05:18:35;15.50;99.90
12726;DHT22;6427;49.754;6.106;2022-10-24T05:21:03;15.50;99.90
12726;DHT22;6427;49.754;6.106;2022-10-24T05:23:30;15.40;99.90
12726;DHT22;6427;49.754;6.106;2022-10-24T05:25:59;15.40;99.90
12726;DHT22;6427;49.754;6.106;2022-10-24T05:28:26;15.40;99.90
12726;DHT22;6427;49.754;6.106;2022-10-24T05:30:54;15.40;99.90
12726;DHT22;6427;49.754;6.106;2022-10-24T05:33:22;15.40;99.90
12726;DHT22;6427;49.754;6.106;2022-10-24T05:35:50;15.40;99.90
12726;DHT22;6427;49.754;6.106;2022-10-24T05:38:17;15.40;99.90
12726;DHT22;6427;49.754;6.106;2022-10-24T05:40:45;15.40;99.90
12726;DHT22;6427;49.754;6.106;2022-10-24T05:43:16;15.60;99.90
12726;DHT22;6427;49.754;6.106;2022-10-24T05:45:43;15.60;99.90
12726;DHT22;6427;49.754;6.106;2022-10-24T05:48:11;15.60;99.90
12726;DHT22;6427;49.754;6.106;2022-10-24T05:50:39;15.60;99.90
12726;DHT22;6427;49.754;6.106;2022-10-24T05:53:07;15.50;99.90
12726;DHT22;6427;49.754;6.106;2022-10-24T05:55:35;15.50;99.90
12726;DHT22;6427;49.754;6.106;2022-10-24T05:58:02;15.50;99.90
12726;DHT22;6427;49.754;6.106;2022-10-24T06:00:29;15.70;99.90
12726;DHT22;6427;49.754;6.106;2022-10-24T06:02:57;15.80;99.90
12726;DHT22;6427;49.754;6.106;2022-10-24T06:05:25;15.70;99.90
12726;DHT22;6427;49.754;6.106;2022-10-24T06:07:52;15.70;99.90
12726;DHT22;6427;49.754;6.106;2022-10-24T06:10:20;15.70;99.90
12726;DHT22;6427;49.754;6.106;2022-10-24T06:12:47;15.70;99.90
12726;DHT22;6427;49.754;6.106;2022-10-24T06:15:15;15.80;99.90
12726;DHT22;6427;49.754;6.106;2022-10-24T06:17:43;15.80;99.90
12726;DHT22;6427;49.754;6.106;2022-10-24T06:20:11;15.80;99.90
12726;DHT22;6427;49.754;6.106;2022-10-24T06:22:38;15.80;99.90
12726;DHT22;6427;49.754;6.106;2022-10-24T06:25:06;15.80;99.90
12726;DHT22;6427;49.754;6.106;2022-10-24T06:27:33;15.80;99.90
12726;DHT22;6427;49.754;6.106;2022-10-24T06:30:01;16.00;99.90
12726;DHT22;6427;49.754;6.106;2022-10-24T06:32:28;16.10;99.90
12726;DHT22;6427;49.754;6.106;2022-10-24T06:34:57;16.00;99.90
12726;DHT22;6427;49.754;6.106;2022-10-24T06:37:24;16.00;99.90
12726;DHT22;6427;49.754;6.106;2022-10-24T06:39:52;16.00;99.90
12726;DHT22;6427;49.754;6.106;2022-10-24T06:42:19;16.00;99.90
12726;DHT22;6427;49.754;6.106;2022-10-24T06:44:47;16.00;99.90
12726;DHT22;6427;49.754;6.106;2022-10-24T06:47:15;16.20;99.90
12726;DHT22;6427;49.754;6.106;2022-10-24T06:49:43;16.20;99.90
12726;DHT22;6427;49.754;6.106;2022-10-24T06:52:10;16.20;99.90
12726;DHT22;6427;49.754;6.106;2022-10-24T06:54:38;16.20;99.90
12726;DHT22;6427;49.754;6.106;2022-10-24T06:57:06;16.10;99.90
12726;DHT22;6427;49.754;6.106;2022-10-24T06:59:33;16.10;99.90
12726;DHT22;6427;49.754;6.106;2022-10-24T07:02:01;16.20;99.90
12726;DHT22;6427;49.754;6.106;2022-10-24T07:04:29;16.10;99.90
12726;DHT22;6427;49.754;6.106;2022-10-24T07:06:56;16.10;99.90
12726;DHT22;6427;49.754;6.106;2022-10-24T07:09:24;16.20;99.90
12726;DHT22;6427;49.754;6.106;2022-10-24T07:11:52;16.20;99.90
12726;DHT22;6427;49.754;6.106;2022-10-24T07:14:19;16.20;99.90
12726;DHT22;6427;49.754;6.106;2022-10-24T07:16:47;16.20;99.90
12726;DHT22;6427;49.754;6.106;2022-10-24T07:19:15;16.20;99.90
12726;DHT22;6427;49.754;6.106;2022-10-24T07:21:44;16.20;99.90
12726;DHT22;6427;49.754;6.106;2022-10-24T07:24:12;16.20;99.90
12726;DHT22;6427;49.754;6.106;2022-10-24T07:26:40;16.30;99.90
12726;DHT22;6427;49.754;6.106;2022-10-24T07:29:08;16.30;99.90
12726;DHT22;6427;49.754;6.106;2022-10-24T07:31:37;16.30;99.90
12726;DHT22;6427;49.754;6.106;2022-10-24T07:34:06;16.30;99.90
12726;DHT22;6427;49.754;6.106;2022-10-24T07:36:32;16.30;99.90
12726;DHT22;6427;49.754;6.106;2022-10-24T07:39:00;16.40;99.90
12726;DHT22;6427;49.754;6.106;2022-10-24T07:41:28;16.40;99.90
12726;DHT22;6427;49.754;6.106;2022-10-24T07:43:59;16.40;99.90
12726;DHT22;6427;49.754;6.106;2022-10-24T07:46:24;16.40;99.90
12726;DHT22;6427;49.754;6.106;2022-10-24T07:48:51;16.40;99.90
12726;DHT22;6427;49.754;6.106;2022-10-24T07:51:19;16.70;99.90
12726;DHT22;6427;49.754;6.106;2022-10-24T07:53:47;16.70;99.90
12726;DHT22;6427;49.754;6.106;2022-10-24T07:56:15;16.60;99.90
12726;DHT22;6427;49.754;6.106;2022-10-24T07:58:43;16.80;99.90
12726;DHT22;6427;49.754;6.106;2022-10-24T08:01:12;16.80;99.90
12726;DHT22;6427;49.754;6.106;2022-10-24T08:03:37;16.70;99.90
12726;DHT22;6427;49.754;6.106;2022-10-24T08:06:10;16.70;99.90
12726;DHT22;6427;49.754;6.106;2022-10-24T08:08:36;16.70;99.90
12726;DHT22;6427;49.754;6.106;2022-10-24T08:11:07;16.70;99.90
12726;DHT22;6427;49.754;6.106;2022-10-24T08:13:35;16.70;99.90
12726;DHT22;6427;49.754;6.106;2022-10-24T08:16:06;16.70;99.90
12726;DHT22;6427;49.754;6.106;2022-10-24T08:18:33;16.70;99.90
12726;DHT22;6427;49.754;6.106;2022-10-24T08:21:02;16.80;99.90
12726;DHT22;6427;49.754;6.106;2022-10-24T08:23:30;16.80;99.90
12726;DHT22;6427;49.754;6.106;2022-10-24T08:25:57;16.80;99.90
12726;DHT22;6427;49.754;6.106;2022-10-24T08:28:24;16.80;99.90
12726;DHT22;6427;49.754;6.106;2022-10-24T08:30:58;16.90;99.90
12726;DHT22;6427;49.754;6.106;2022-10-24T08:33:25;17.00;99.90
12726;DHT22;6427;49.754;6.106;2022-10-24T08:35:53;17.10;99.90
12726;DHT22;6427;49.754;6.106;2022-10-24T08:38:20;17.20;99.90
12726;DHT22;6427;49.754;6.106;2022-10-24T08:40:48;17.30;99.90
12726;DHT22;6427;49.754;6.106;2022-10-24T08:43:15;17.40;99.90
12726;DHT22;6427;49.754;6.106;2022-10-24T08:48:31;17.50;99.90
12726;DHT22;6427;49.754;6.106;2022-10-24T08:51:04;17.50;99.90
12726;DHT22;6427;49.754;6.106;2022-10-24T08:53:27;17.60;99.90
12726;DHT22;6427;49.754;6.106;2022-10-24T08:55:55;17.60;99.90
12726;DHT22;6427;49.754;6.106;2022-10-24T08:58:37;17.60;99.90
12726;DHT22;6427;49.754;6.106;2022-10-24T09:01:02;17.60;99.90
12726;DHT22;6427;49.754;6.106;2022-10-24T09:03:38;17.60;99.90
12726;DHT22;6427;49.754;6.106;2022-10-24T09:06:03;17.60;99.90
12726;DHT22;6427;49.754;6.106;2022-10-24T09:11:19;17.60;99.90
12726;DHT22;6427;49.754;6.106;2022-10-24T09:13:43;17.90;99.90
12726;DHT22;6427;49.754;6.106;2022-10-24T09:16:13;18.10;99.90
12726;DHT22;6427;49.754;6.106;2022-10-24T09:18:39;18.10;99.90
12726;DHT22;6427;49.754;6.106;2022-10-24T09:21:07;18.00;99.90
12726;DHT22;6427;49.754;6.106;2022-10-24T09:23:34;18.00;99.90
12726;DHT22;6427;49.754;6.106;2022-10-24T09:26:03;18.00;99.90
12726;DHT22;6427;49.754;6.106;2022-10-24T09:28:29;17.90;99.90
12726;DHT22;6427;49.754;6.106;2022-10-24T09:30:57;17.90;99.90
12726;DHT22;6427;49.754;6.106;2022-10-24T09:33:25;18.10;99.90
12726;DHT22;6427;49.754;6.106;2022-10-24T09:35:52;18.20;99.90
12726;DHT22;6427;49.754;6.106;2022-10-24T09:38:28;18.10;99.90
12726;DHT22;6427;49.754;6.106;2022-10-24T09:40:57;18.10;99.90
12726;DHT22;6427;49.754;6.106;2022-10-24T09:43:31;18.10;99.90
12726;DHT22;6427;49.754;6.106;2022-10-24T09:46:08;18.20;99.90
12726;DHT22;6427;49.754;6.106;2022-10-24T09:48:37;18.20;99.90
12726;DHT22;6427;49.754;6.106;2022-10-24T09:51:01;18.50;99.90
12726;DHT22;6427;49.754;6.106;2022-10-24T09:53:35;18.40;99.90
12726;DHT22;6427;49.754;6.106;2022-10-24T09:56:13;18.30;99.90
12726;DHT22;6427;49.754;6.106;2022-10-24T09:58:41;18.20;99.90
12726;DHT22;6427;49.754;6.106;2022-10-24T10:01:20;18.20;99.90
12726;DHT22;6427;49.754;6.106;2022-10-24T10:04:03;18.20;99.90
12726;DHT22;6427;49.754;6.106;2022-10-24T10:06:30;18.40;99.90
12726;DHT22;6427;49.754;6.106;2022-10-24T10:08:58;18.50;99.90
12726;DHT22;6427;49.754;6.106;2022-10-24T10:11:27;18.60;99.90
12726;DHT22;6427;49.754;6.106;2022-10-24T10:13:54;18.60;99.90
12726;DHT22;6427;49.754;6.106;2022-10-24T10:16:28;18.70;99.90
12726;DHT22;6427;49.754;6.106;2022-10-24T10:19:20;19.10;99.90
12726;DHT22;6427;49.754;6.106;2022-10-24T10:21:51;19.10;99.90
12726;DHT22;6427;49.754;6.106;2022-10-24T10:24:26;19.10;99.90
12726;DHT22;6427;49.754;6.106;2022-10-24T10:26:51;19.10;99.90
12726;DHT22;6427;49.754;6.106;2022-10-24T10:29:22;19.10;99.90
12726;DHT22;6427;49.754;6.106;2022-10-24T10:31:53;19.00;99.90
12726;DHT22;6427;49.754;6.106;2022-10-24T10:34:19;18.90;99.90
12726;DHT22;6427;49.754;6.106;2022-10-24T10:42:10;18.90;99.90
12726;DHT22;6427;49.754;6.106;2022-10-24T10:47:17;18.90;99.90
12726;DHT22;6427;49.754;6.106;2022-10-24T10:49:40;18.80;99.90
12726;DHT22;6427;49.754;6.106;2022-10-24T10:52:23;18.70;99.90
12726;DHT22;6427;49.754;6.106;2022-10-24T10:57:58;18.70;99.90
12726;DHT22;6427;49.754;6.106;2022-10-24T11:00:47;18.90;99.90
12726;DHT22;6427;49.754;6.106;2022-10-24T11:06:06;18.70;99.90
12726;DHT22;6427;49.754;6.106;2022-10-24T11:08:37;18.60;99.90
12726;DHT22;6427;49.754;6.106;2022-10-24T11:11:02;18.80;99.90
12726;DHT22;6427;49.754;6.106;2022-10-24T11:13:33;18.60;99.90
12726;DHT22;6427;49.754;6.106;2022-10-24T11:16:00;18.70;99.90
12726;DHT22;6427;49.754;6.106;2022-10-24T11:18:35;18.70;99.90
12726;DHT22;6427;49.754;6.106;2022-10-24T11:21:08;18.60;99.90
12726;DHT22;6427;49.754;6.106;2022-10-24T11:26:33;18.60;99.90
12726;DHT22;6427;49.754;6.106;2022-10-24T11:31:54;18.50;99.90
12726;DHT22;6427;49.754;6.106;2022-10-24T11:34:40;18.30;99.90
12726;DHT22;6427;49.754;6.106;2022-10-24T11:37:11;18.30;99.90
12726;DHT22;6427;49.754;6.106;2022-10-24T11:39:43;18.50;99.90
12726;DHT22;6427;49.754;6.106;2022-10-24T11:42:32;18.40;99.90
12726;DHT22;6427;49.754;6.106;2022-10-24T11:45:13;18.40;99.90
12726;DHT22;6427;49.754;6.106;2022-10-24T11:55:40;18.30;99.90
12726;DHT22;6427;49.754;6.106;2022-10-24T11:58:13;18.50;99.90
12726;DHT22;6427;49.754;6.106;2022-10-24T12:04:01;18.50;99.90
12726;DHT22;6427;49.754;6.106;2022-10-24T12:06:46;18.40;99.90
12726;DHT22;6427;49.754;6.106;2022-10-24T12:09:37;18.40;99.90
12726;DHT22;6427;49.754;6.106;2022-10-24T12:14:48;18.30;99.90
12726;DHT22;6427;49.754;6.106;2022-10-24T12:19:59;18.30;99.90
12726;DHT22;6427;49.754;6.106;2022-10-24T12:22:35;18.30;99.90
12726;DHT22;6427;49.754;6.106;2022-10-24T12:25:31;18.30;99.90
12726;DHT22;6427;49.754;6.106;2022-10-24T12:27:59;18.30;99.90
12726;DHT22;6427;49.754;6.106;2022-10-24T12:30:27;18.30;99.90
12726;DHT22;6427;49.754;6.106;2022-10-24T12:33:07;18.30;99.90
12726;DHT22;6427;49.754;6.106;2022-10-24T12:35:55;18.30;99.90
12726;DHT22;6427;49.754;6.106;2022-10-24T12:38:01;18.30;99.90
12726;DHT22;6427;49.754;6.106;2022-10-24T12:40:48;18.30;99.90
12726;DHT22;6427;49.754;6.106;2022-10-24T12:43:31;18.40;99.90
12726;DHT22;6427;49.754;6.106;2022-10-24T12:45:59;18.30;99.90
12726;DHT22;6427;49.754;6.106;2022-10-24T12:48:35;18.30;99.90
12726;DHT22;6427;49.754;6.106;2022-10-24T12:51:09;18.30;99.90
12726;DHT22;6427;49.754;6.106;2022-10-24T12:58:33;18.50;99.90
12726;DHT22;6427;49.754;6.106;2022-10-24T13:01:04;18.70;99.90
12726;DHT22;6427;49.754;6.106;2022-10-24T13:07:28;18.50;99.90
12726;DHT22;6427;49.754;6.106;2022-10-24T13:09:06;18.50;99.90
12726;DHT22;6427;49.754;6.106;2022-10-24T13:17:42;18.30;99.90
12726;DHT22;6427;49.754;6.106;2022-10-24T13:20:22;18.30;99.90
12726;DHT22;6427;49.754;6.106;2022-10-24T13:22:49;18.30;99.90
12726;DHT22;6427;49.754;6.106;2022-10-24T13:25:36;18.20;99.90
12726;DHT22;6427;49.754;6.106;2022-10-24T13:30:46;18.20;99.90
12726;DHT22;6427;49.754;6.106;2022-10-24T13:38:36;18.50;99.90
12726;DHT22;6427;49.754;6.106;2022-10-24T13:41:03;18.50;99.90
12726;DHT22;6427;49.754;6.106;2022-10-24T13:43:31;18.50;99.90
12726;DHT22;6427;49.754;6.106;2022-10-24T13:46:03;18.40;99.90
12726;DHT22;6427;49.754;6.106;2022-10-24T13:48:30;18.40;99.90
12726;DHT22;6427;49.754;6.106;2022-10-24T13:51:14;18.40;99.90
12726;DHT22;6427;49.754;6.106;2022-10-24T13:53:44;18.40;99.90
12726;DHT22;6427;49.754;6.106;2022-10-24T13:56:10;18.40;99.90
12726;DHT22;6427;49.754;6.106;2022-10-24T13:58:41;18.50;99.90
12726;DHT22;6427;49.754;6.106;2022-10-24T14:01:27;18.50;99.90
12726;DHT22;6427;49.754;6.106;2022-10-24T14:03:55;18.50;99.90
12726;DHT22;6427;49.754;6.106;2022-10-24T14:06:25;18.50;99.90
12726;DHT22;6427;49.754;6.106;2022-10-24T14:08:50;18.50;99.90
12726;DHT22;6427;49.754;6.106;2022-10-24T14:11:21;18.50;99.90
12726;DHT22;6427;49.754;6.106;2022-10-24T14:13:48;18.50;99.90
12726;DHT22;6427;49.754;6.106;2022-10-24T14:16:15;18.50;99.90
12726;DHT22;6427;49.754;6.106;2022-10-24T14:18:43;18.50;99.90
12726;DHT22;6427;49.754;6.106;2022-10-24T14:21:18;18.50;99.90
12726;DHT22;6427;49.754;6.106;2022-10-24T14:23:54;18.50;99.90
12726;DHT22;6427;49.754;6.106;2022-10-24T14:26:23;18.40;99.90
12726;DHT22;6427;49.754;6.106;2022-10-24T14:28:54;18.40;99.90
12726;DHT22;6427;49.754;6.106;2022-10-24T14:31:22;18.40;99.90
12726;DHT22;6427;49.754;6.106;2022-10-24T14:33:49;18.50;99.90
12726;DHT22;6427;49.754;6.106;2022-10-24T14:36:17;18.80;99.90
12726;DHT22;6427;49.754;6.106;2022-10-24T14:38:44;18.70;99.90
12726;DHT22;6427;49.754;6.106;2022-10-24T14:41:12;18.60;99.90
12726;DHT22;6427;49.754;6.106;2022-10-24T14:43:39;18.50;99.90
12726;DHT22;6427;49.754;6.106;2022-10-24T14:46:22;18.50;99.90
12726;DHT22;6427;49.754;6.106;2022-10-24T14:48:47;18.40;99.90
12726;DHT22;6427;49.754;6.106;2022-10-24T14:51:27;18.40;99.90
12726;DHT22;6427;49.754;6.106;2022-10-24T14:53:51;18.30;99.90
12726;DHT22;6427;49.754;6.106;2022-10-24T14:58:52;18.30;99.90
12726;DHT22;6427;49.754;6.106;2022-10-24T15:01:20;18.30;99.90
12726;DHT22;6427;49.754;6.106;2022-10-24T15:03:57;18.20;99.90
12726;DHT22;6427;49.754;6.106;2022-10-24T15:06:26;18.20;99.90
12726;DHT22;6427;49.754;6.106;2022-10-24T15:11:42;18.20;99.90
12726;DHT22;6427;49.754;6.106;2022-10-24T15:16:52;18.30;99.90
12726;DHT22;6427;49.754;6.106;2022-10-24T15:19:21;18.30;99.90
12726;DHT22;6427;49.754;6.106;2022-10-24T15:21:49;18.50;99.90
12726;DHT22;6427;49.754;6.106;2022-10-24T15:24:24;18.50;99.90
12726;DHT22;6427;49.754;6.106;2022-10-24T15:26:51;18.50;99.90
12726;DHT22;6427;49.754;6.106;2022-10-24T15:29:19;18.50;99.90
12726;DHT22;6427;49.754;6.106;2022-10-24T15:31:46;18.50;99.90
12726;DHT22;6427;49.754;6.106;2022-10-24T15:34:14;18.40;99.90
12726;DHT22;6427;49.754;6.106;2022-10-24T15:36:42;18.30;99.90
12726;DHT22;6427;49.754;6.106;2022-10-24T15:41:37;18.30;99.90
12726;DHT22;6427;49.754;6.106;2022-10-24T15:44:18;18.30;99.90
12726;DHT22;6427;49.754;6.106;2022-10-24T15:46:44;18.30;99.90
12726;DHT22;6427;49.754;6.106;2022-10-24T15:49:11;18.20;99.90
12726;DHT22;6427;49.754;6.106;2022-10-24T15:51:40;18.20;99.90
12726;DHT22;6427;49.754;6.106;2022-10-24T15:54:09;18.10;99.90
12726;DHT22;6427;49.754;6.106;2022-10-24T15:56:34;18.00;99.90
12726;DHT22;6427;49.754;6.106;2022-10-24T15:59:02;18.00;99.90
12726;DHT22;6427;49.754;6.106;2022-10-24T16:01:30;18.20;99.90
12726;DHT22;6427;49.754;6.106;2022-10-24T16:03:58;18.00;99.90
12726;DHT22;6427;49.754;6.106;2022-10-24T16:06:25;18.00;99.90
12726;DHT22;6427;49.754;6.106;2022-10-24T16:08:53;18.00;99.90
12726;DHT22;6427;49.754;6.106;2022-10-24T16:11:20;17.90;99.90
12726;DHT22;6427;49.754;6.106;2022-10-24T16:13:48;17.80;99.90
12726;DHT22;6427;49.754;6.106;2022-10-24T16:16:16;17.80;99.90
12726;DHT22;6427;49.754;6.106;2022-10-24T16:18:43;17.70;99.90
12726;DHT22;6427;49.754;6.106;2022-10-24T16:21:18;17.70;99.90
12726;DHT22;6427;49.754;6.106;2022-10-24T16:23:44;17.60;99.90
12726;DHT22;6427;49.754;6.106;2022-10-24T16:26:12;17.60;99.90
12726;DHT22;6427;49.754;6.106;2022-10-24T16:28:39;17.50;99.90
12726;DHT22;6427;49.754;6.106;2022-10-24T16:31:08;17.70;99.90
12726;DHT22;6427;49.754;6.106;2022-10-24T16:33:35;17.70;99.90
12726;DHT22;6427;49.754;6.106;2022-10-24T16:36:04;17.50;99.90
12726;DHT22;6427;49.754;6.106;2022-10-24T16:38:31;17.50;99.90
12726;DHT22;6427;49.754;6.106;2022-10-24T16:40:59;17.40;99.90
12726;DHT22;6427;49.754;6.106;2022-10-24T16:43:27;17.20;99.90
12726;DHT22;6427;49.754;6.106;2022-10-24T16:46:01;17.20;99.90
12726;DHT22;6427;49.754;6.106;2022-10-24T16:48:28;17.20;99.90
12726;DHT22;6427;49.754;6.106;2022-10-24T16:50:55;17.10;99.90
12726;DHT22;6427;49.754;6.106;2022-10-24T16:53:23;17.30;99.90
12726;DHT22;6427;49.754;6.106;2022-10-24T16:55:52;17.50;99.90
12726;DHT22;6427;49.754;6.106;2022-10-24T16:58:19;17.60;99.90
12726;DHT22;6427;49.754;6.106;2022-10-24T17:00:47;17.30;99.90
12726;DHT22;6427;49.754;6.106;2022-10-24T17:03:14;17.30;99.90
12726;DHT22;6427;49.754;6.106;2022-10-24T17:05:42;17.10;99.90
12726;DHT22;6427;49.754;6.106;2022-10-24T17:08:10;17.10;99.90
12726;DHT22;6427;49.754;6.106;2022-10-24T17:10:37;17.00;99.90
12726;DHT22;6427;49.754;6.106;2022-10-24T17:13:05;17.10;99.90
12726;DHT22;6427;49.754;6.106;2022-10-24T17:15:33;17.10;99.90
12726;DHT22;6427;49.754;6.106;2022-10-24T17:18:00;17.00;99.90
12726;DHT22;6427;49.754;6.106;2022-10-24T17:20:28;16.80;99.90
12726;DHT22;6427;49.754;6.106;2022-10-24T17:22:56;16.80;99.90
12726;DHT22;6427;49.754;6.106;2022-10-24T17:25:24;16.80;99.90
12726;DHT22;6427;49.754;6.106;2022-10-24T17:27:51;16.70;99.90
12726;DHT22;6427;49.754;6.106;2022-10-24T17:30:20;16.70;99.90
12726;DHT22;6427;49.754;6.106;2022-10-24T17:32:46;16.60;99.90
12726;DHT22;6427;49.754;6.106;2022-10-24T17:35:15;16.60;99.90
12726;DHT22;6427;49.754;6.106;2022-10-24T17:40:17;16.50;99.90
12726;DHT22;6427;49.754;6.106;2022-10-24T17:42:44;16.50;99.90
12726;DHT22;6427;49.754;6.106;2022-10-24T17:45:15;16.50;99.90
12726;DHT22;6427;49.754;6.106;2022-10-24T17:47:42;16.50;99.90